Time;durP1;ratioP1;P1;durP2;ratioP2;P2;SDS_P1;SDS_P2;PMS_P1;PMS_P2;Temp;Humidity;BMP_temperature;BMP_pressure;BME280_temperature;BME280_humidity;BME280_pressure;Samples;Min_cycle;Max_cycle;Signal;HPM_P1;HPM_P2
2022/11/13 00:02:05;;;;;;;9.53;8.73;;;;;;;;;;4975869;28;20445;-83
2022/11/13 00:04:31;;;;;;;9.87;8.97;;;;;;;;;;4977564;28;20429;-82
2022/11/13 00:06:57;;;;;;;9.17;8.47;;;;;;;;;;4971154;28;20563;-82
2022/11/13 00:09:23;;;;;;;11.53;10.17;;;;;;;;;;4974379;28;20600;-83
2022/11/13 00:11:49;;;;;;;9.20;8.50;;;;;;;;;;4963798;28;20455;-82
2022/11/13 00:14:15;;;;;;;10.73;9.60;;;;;;;;;;4977767;28;20479;-81
2022/11/13 00:16:41;;;;;;;9.97;8.80;;;;;;;;;;4970257;28;20445;-84
2022/11/13 00:19:07;;;;;;;10.40;9.23;;;;;;;;;;4971267;28;20436;-82
2022/11/13 00:21:33;;;;;;;9.60;8.60;;;;;;;;;;4963560;28;20848;-83
2022/11/13 00:23:59;;;;;;;8.93;8.30;;;;;;;;;;4967227;28;20946;-84
2022/11/13 00:26:27;;;;;;;9.23;8.53;;;;;;;;;;4964596;28;20461;-83
2022/11/13 00:28:53;;;;;;;8.97;8.20;;;;;;;;;;4955633;28;20437;-84
2022/11/13 00:31:20;;;;;;;8.17;7.53;;;;;;;;;;4967279;28;20547;-83
2022/11/13 00:33:46;;;;;;;9.27;8.63;;;;;;;;;;4967346;28;20445;-83
2022/11/13 00:36:16;;;;;;;10.57;9.33;;;;;;;;;;4964182;28;20441;-79
2022/11/13 00:38:42;;;;;;;9.50;8.60;;;;;;;;;;4967031;28;20784;-82
2022/11/13 00:41:08;;;;;;;9.53;8.63;;;;;;;;;;4973947;28;20879;-83
2022/11/13 00:43:34;;;;;;;11.83;10.13;;;;;;;;;;4967307;28;20413;-82
2022/11/13 00:46:00;;;;;;;9.10;8.40;;;;;;;;;;4969795;28;20851;-82
2022/11/13 00:48:26;;;;;;;9.43;8.50;;;;;;;;;;4967272;28;20425;-83
2022/11/13 00:50:52;;;;;;;11.10;9.97;;;;;;;;;;4965680;28;20449;-82
2022/11/13 00:53:19;;;;;;;8.77;7.97;;;;;;;;;;4975911;28;20451;-83
2022/11/13 00:55:45;;;;;;;9.17;8.27;;;;;;;;;;4963904;28;20436;-82
2022/11/13 00:58:15;;;;;;;10.07;9.20;;;;;;;;;;4967249;28;20432;-83
2022/11/13 01:00:42;;;;;;;8.73;7.93;;;;;;;;;;4967415;28;20436;-84
2022/11/13 01:03:08;;;;;;;14.30;10.17;;;;;;;;;;4978222;28;20479;-81
2022/11/13 01:05:38;;;;;;;8.93;8.17;;;;;;;;;;4977604;28;20830;-83
2022/11/13 01:08:04;;;;;;;10.23;9.07;;;;;;;;;;4967327;28;20433;-82
2022/11/13 01:10:30;;;;;;;9.10;8.30;;;;;;;;;;4969674;28;20484;-83
2022/11/13 01:12:56;;;;;;;9.43;8.57;;;;;;;;;;4974183;28;20536;-82
2022/11/13 01:15:23;;;;;;;8.97;8.27;;;;;;;;;;4971568;28;20516;-82
2022/11/13 01:17:50;;;;;;;8.43;7.73;;;;;;;;;;4967471;28;20532;-82
2022/11/13 01:20:16;;;;;;;9.67;8.70;;;;;;;;;;4977527;28;20580;-79
2022/11/13 01:22:43;;;;;;;8.83;7.97;;;;;;;;;;4977775;28;20441;-81
2022/11/13 01:25:09;;;;;;;9.60;8.00;;;;;;;;;;4975495;28;20433;-80
2022/11/13 01:27:35;;;;;;;10.03;8.13;;;;;;;;;;4962131;28;20450;-83
2022/11/13 01:30:01;;;;;;;9.17;8.37;;;;;;;;;;4976091;28;20482;-81
2022/11/13 01:32:27;;;;;;;7.97;7.50;;;;;;;;;;4983859;28;20531;-81
2022/11/13 01:34:53;;;;;;;8.67;7.80;;;;;;;;;;4981800;28;20472;-81
2022/11/13 01:37:19;;;;;;;8.80;8.03;;;;;;;;;;4971014;28;20453;-81
2022/11/13 01:39:45;;;;;;;12.33;8.77;;;;;;;;;;4980152;28;20441;-81
2022/11/13 01:42:11;;;;;;;9.47;8.50;;;;;;;;;;4978281;28;20445;-80
2022/11/13 01:44:55;;;;;;;10.00;7.47;;;;;;;;;;4971684;28;20517;-80
2022/11/13 01:47:21;;;;;;;9.57;8.27;;;;;;;;;;4985533;28;20969;-82
2022/11/13 01:49:48;;;;;;;8.53;7.83;;;;;;;;;;4969683;28;20438;-82
2022/11/13 01:52:19;;;;;;;9.43;8.33;;;;;;;;;;4972999;28;20699;-82
2022/11/13 01:54:48;;;;;;;9.40;8.60;;;;;;;;;;4971210;28;20418;-81
2022/11/13 01:57:14;;;;;;;7.73;7.23;;;;;;;;;;4972632;28;21086;-83
2022/11/13 01:59:43;;;;;;;8.37;7.77;;;;;;;;;;4992199;28;20452;-83
2022/11/13 02:02:09;;;;;;;7.57;6.93;;;;;;;;;;4974926;28;20484;-83
2022/11/13 02:04:35;;;;;;;8.30;7.50;;;;;;;;;;4975053;28;20425;-84
2022/11/13 02:07:06;;;;;;;8.67;7.83;;;;;;;;;;4980369;28;20546;-83
2022/11/13 02:09:36;;;;;;;6.60;6.10;;;;;;;;;;4969485;28;20557;-82
2022/11/13 02:12:03;;;;;;;7.73;7.23;;;;;;;;;;4984387;28;20471;-82
2022/11/13 02:14:29;;;;;;;8.53;7.60;;;;;;;;;;4968135;28;20425;-82
2022/11/13 02:16:58;;;;;;;7.53;6.93;;;;;;;;;;4974360;28;20441;-82
2022/11/13 02:19:44;;;;;;;8.80;7.37;;;;;;;;;;4976426;28;20489;-81
2022/11/13 02:22:15;;;;;;;7.13;6.60;;;;;;;;;;4965653;28;20453;-82
2022/11/13 02:24:44;;;;;;;8.03;7.47;;;;;;;;;;4963835;28;20931;-81
2022/11/13 02:27:16;;;;;;;7.87;7.20;;;;;;;;;;4974278;28;20468;-81
2022/11/13 02:29:42;;;;;;;8.17;7.37;;;;;;;;;;4972057;28;20433;-82
2022/11/13 02:32:08;;;;;;;6.93;6.43;;;;;;;;;;4973001;28;20445;-82
2022/11/13 02:34:34;;;;;;;7.97;7.33;;;;;;;;;;4968632;28;20437;-82
2022/11/13 02:37:00;;;;;;;7.07;6.47;;;;;;;;;;4970692;28;20441;-82
2022/11/13 02:39:26;;;;;;;7.27;6.67;;;;;;;;;;4973151;28;20429;-82
2022/11/13 02:41:52;;;;;;;6.40;6.10;;;;;;;;;;4974135;28;20444;-81
2022/11/13 02:44:18;;;;;;;6.30;5.70;;;;;;;;;;4968923;28;20436;-82
2022/11/13 02:46:44;;;;;;;6.53;6.03;;;;;;;;;;4961919;28;21033;-81
2022/11/13 02:49:10;;;;;;;6.90;6.50;;;;;;;;;;4969596;28;20441;-81
2022/11/13 02:51:36;;;;;;;6.93;6.47;;;;;;;;;;4964468;28;20452;-81
2022/11/13 02:54:02;;;;;;;7.50;6.90;;;;;;;;;;4968341;28;20409;-81
2022/11/13 02:56:28;;;;;;;6.57;6.17;;;;;;;;;;4970671;28;20467;-83
2022/11/13 02:58:54;;;;;;;6.90;6.43;;;;;;;;;;4970139;28;20424;-84
2022/11/13 03:01:20;;;;;;;7.47;6.77;;;;;;;;;;4969266;28;20224;-83
2022/11/13 03:03:46;;;;;;;7.90;7.40;;;;;;;;;;4979274;28;20558;-83
2022/11/13 03:06:12;;;;;;;7.13;6.63;;;;;;;;;;4975336;28;20460;-84
2022/11/13 03:08:38;;;;;;;7.03;6.53;;;;;;;;;;4972244;28;20482;-83
2022/11/13 03:11:11;;;;;;;6.90;6.30;;;;;;;;;;4965223;28;20225;-84
2022/11/13 03:13:37;;;;;;;7.00;6.50;;;;;;;;;;4979663;28;20448;-83
2022/11/13 03:16:11;;;;;;;7.43;6.73;;;;;;;;;;4971875;28;20197;-82
2022/11/13 03:18:37;;;;;;;7.70;7.00;;;;;;;;;;4979987;28;20393;-83
2022/11/13 03:21:08;;;;;;;8.90;6.77;;;;;;;;;;4975817;28;20475;-82
2022/11/13 03:23:34;;;;;;;8.27;7.57;;;;;;;;;;4973253;28;20406;-82
2022/11/13 03:26:04;;;;;;;6.97;6.47;;;;;;;;;;4965484;28;20519;-82
2022/11/13 03:28:31;;;;;;;7.50;6.90;;;;;;;;;;4968356;28;20413;-81
2022/11/13 03:30:57;;;;;;;7.60;7.10;;;;;;;;;;4964357;28;20190;-82
2022/11/13 03:33:23;;;;;;;7.30;6.73;;;;;;;;;;4976743;28;20461;-82
2022/11/13 03:35:49;;;;;;;7.90;7.27;;;;;;;;;;4974950;28;20438;-83
2022/11/13 03:38:15;;;;;;;6.80;6.40;;;;;;;;;;4967888;28;20417;-83
2022/11/13 03:40:42;;;;;;;6.40;5.90;;;;;;;;;;4965722;28;20831;-80
2022/11/13 03:43:08;;;;;;;6.20;5.70;;;;;;;;;;4962974;28;20505;-81
2022/11/13 03:45:34;;;;;;;7.60;6.90;;;;;;;;;;4970389;28;20198;-81
2022/11/13 03:48:00;;;;;;;7.60;6.60;;;;;;;;;;4965156;28;20449;-82
2022/11/13 03:50:27;;;;;;;6.67;6.00;;;;;;;;;;4967157;28;20434;-80
2022/11/13 03:52:53;;;;;;;8.67;7.77;;;;;;;;;;4965942;28;20433;-81
2022/11/13 03:55:19;;;;;;;6.37;6.07;;;;;;;;;;4977832;28;20425;-82
2022/11/13 03:57:46;;;;;;;6.80;6.40;;;;;;;;;;4966644;28;20483;-81
2022/11/13 04:00:12;;;;;;;7.03;6.50;;;;;;;;;;4973729;28;21027;-82
2022/11/13 04:02:38;;;;;;;5.40;5.13;;;;;;;;;;4966324;28;20756;-82
2022/11/13 04:05:05;;;;;;;6.40;6.10;;;;;;;;;;4970859;28;20444;-82
2022/11/13 04:07:31;;;;;;;7.23;6.70;;;;;;;;;;4963749;28;20451;-81
2022/11/13 04:09:57;;;;;;;7.33;6.73;;;;;;;;;;4967499;28;20462;-80
2022/11/13 04:12:23;;;;;;;6.00;5.60;;;;;;;;;;4970368;28;20445;-82
2022/11/13 04:14:49;;;;;;;6.13;5.63;;;;;;;;;;4977366;28;20444;-82
2022/11/13 04:17:15;;;;;;;7.40;6.47;;;;;;;;;;4966966;28;20978;-81
2022/11/13 04:19:41;;;;;;;6.23;5.70;;;;;;;;;;4967305;28;20440;-81
2022/11/13 04:22:07;;;;;;;6.03;5.63;;;;;;;;;;4968909;28;20794;-83
2022/11/13 04:24:33;;;;;;;6.77;6.17;;;;;;;;;;4967773;28;20531;-83
2022/11/13 04:26:59;;;;;;;6.32;5.93;;;;;;;;;;4973664;28;20503;-83
2022/11/13 04:29:25;;;;;;;6.87;6.27;;;;;;;;;;4967361;28;20200;-83
2022/11/13 04:31:51;;;;;;;6.53;5.97;;;;;;;;;;4972501;28;20453;-82
2022/11/13 04:34:17;;;;;;;7.72;6.38;;;;;;;;;;4971490;28;20939;-82
2022/11/13 04:36:43;;;;;;;6.30;5.90;;;;;;;;;;4963630;28;20244;-81
2022/11/13 04:39:09;;;;;;;6.93;6.50;;;;;;;;;;4971731;28;20411;-82
2022/11/13 04:44:20;;;;;;;5.23;4.90;;;;;;;;;;4977245;28;20503;-81
2022/11/13 04:46:46;;;;;;;5.80;5.40;;;;;;;;;;4962985;28;20938;-82
2022/11/13 04:49:12;;;;;;;5.57;5.27;;;;;;;;;;4973560;28;20923;-83
2022/11/13 04:51:38;;;;;;;5.53;5.27;;;;;;;;;;4978572;28;20878;-79
2022/11/13 04:54:04;;;;;;;5.00;4.60;;;;;;;;;;4971179;28;20874;-82
2022/11/13 04:56:30;;;;;;;5.13;4.83;;;;;;;;;;4967623;28;20407;-83
2022/11/13 04:58:56;;;;;;;4.77;4.50;;;;;;;;;;4970211;28;20423;-81
2022/11/13 05:01:22;;;;;;;6.67;5.03;;;;;;;;;;4982640;28;20442;-83
2022/11/13 05:03:48;;;;;;;5.33;5.03;;;;;;;;;;4975230;28;20464;-82
2022/11/13 05:06:14;;;;;;;4.73;4.53;;;;;;;;;;4970689;28;20487;-82
2022/11/13 05:08:40;;;;;;;5.20;4.97;;;;;;;;;;4970374;28;20943;-82
2022/11/13 05:11:06;;;;;;;4.73;4.33;;;;;;;;;;4966290;28;20539;-83
2022/11/13 05:13:33;;;;;;;5.88;5.15;;;;;;;;;;4970622;28;20409;-82
2022/11/13 05:16:06;;;;;;;5.32;4.93;;;;;;;;;;4969348;28;20272;-82
2022/11/13 05:18:33;;;;;;;7.85;5.03;;;;;;;;;;4970207;28;20182;-82
2022/11/13 05:20:59;;;;;;;4.40;4.20;;;;;;;;;;4967566;28;20479;-84
2022/11/13 05:23:25;;;;;;;5.85;5.40;;;;;;;;;;4970065;28;20176;-84
2022/11/13 05:25:51;;;;;;;5.90;5.40;;;;;;;;;;4968580;28;20205;-84
2022/11/13 05:28:17;;;;;;;5.20;4.80;;;;;;;;;;4970441;28;20640;-83
2022/11/13 05:30:43;;;;;;;8.52;5.05;;;;;;;;;;4966949;28;20201;-83
2022/11/13 05:33:09;;;;;;;5.72;5.18;;;;;;;;;;4970383;28;20178;-83
2022/11/13 05:35:36;;;;;;;3.77;3.57;;;;;;;;;;4975671;28;20182;-84
2022/11/13 05:38:02;;;;;;;4.88;4.53;;;;;;;;;;4985742;28;20506;-83
2022/11/13 05:40:29;;;;;;;4.20;4.00;;;;;;;;;;4970242;28;20656;-84
2022/11/13 05:42:58;;;;;;;4.35;4.05;;;;;;;;;;4967865;28;20442;-83
2022/11/13 05:45:25;;;;;;;4.53;4.22;;;;;;;;;;4986553;28;20264;-82
2022/11/13 05:47:51;;;;;;;4.40;4.20;;;;;;;;;;4985184;28;20271;-83
2022/11/13 05:50:19;;;;;;;4.53;4.23;;;;;;;;;;4970181;28;20711;-84
2022/11/13 05:52:46;;;;;;;4.85;4.65;;;;;;;;;;4985370;28;20455;-83
2022/11/13 05:55:16;;;;;;;4.22;4.03;;;;;;;;;;4969620;28;20694;-82
2022/11/13 05:57:42;;;;;;;4.13;3.92;;;;;;;;;;4985396;28;20219;-82
2022/11/13 06:00:08;;;;;;;4.50;4.40;;;;;;;;;;4970286;28;20186;-83
2022/11/13 06:02:34;;;;;;;3.87;3.67;;;;;;;;;;4978325;28;20882;-82
2022/11/13 06:05:00;;;;;;;4.17;3.97;;;;;;;;;;4976127;28;20951;-82
2022/11/13 06:07:26;;;;;;;3.73;3.63;;;;;;;;;;4970507;28;20516;-83
2022/11/13 06:09:52;;;;;;;4.43;4.23;;;;;;;;;;4970170;28;20495;-82
2022/11/13 06:12:18;;;;;;;3.90;3.80;;;;;;;;;;4971874;28;20894;-86
2022/11/13 06:14:44;;;;;;;4.60;4.30;;;;;;;;;;4984994;28;20220;-84
2022/11/13 06:17:10;;;;;;;4.38;4.07;;;;;;;;;;4980232;28;20432;-82
2022/11/13 06:19:37;;;;;;;10.93;3.90;;;;;;;;;;4974933;28;20218;-84
2022/11/13 06:22:03;;;;;;;3.70;3.33;;;;;;;;;;4976537;28;20454;-82
2022/11/13 06:24:29;;;;;;;4.30;3.87;;;;;;;;;;4971038;28;20832;-83
2022/11/13 06:26:55;;;;;;;4.53;3.10;;;;;;;;;;4976979;28;20461;-83
2022/11/13 06:29:22;;;;;;;4.20;4.00;;;;;;;;;;4984681;28;20613;-82
2022/11/13 06:31:48;;;;;;;5.30;5.00;;;;;;;;;;4985077;28;20856;-84
2022/11/13 06:34:14;;;;;;;3.60;3.50;;;;;;;;;;4285619;28;10000744;-83
2022/11/13 06:36:40;;;;;;;3.78;3.67;;;;;;;;;;4968606;28;20441;-83
2022/11/13 06:39:07;;;;;;;3.67;3.38;;;;;;;;;;4962351;28;20694;-80
2022/11/13 06:41:33;;;;;;;3.45;3.30;;;;;;;;;;4963575;28;20178;-82
2022/11/13 06:44:00;;;;;;;4.07;3.80;;;;;;;;;;4959497;28;20594;-82
2022/11/13 06:46:27;;;;;;;3.40;3.30;;;;;;;;;;4956790;28;20498;-81
2022/11/13 06:48:53;;;;;;;3.70;3.60;;;;;;;;;;4960128;28;20845;-79
2022/11/13 06:51:24;;;;;;;4.20;4.00;;;;;;;;;;4952087;28;20899;-81
2022/11/13 06:53:50;;;;;;;4.30;4.00;;;;;;;;;;4949893;28;20453;-82
2022/11/13 06:56:16;;;;;;;4.40;3.50;;;;;;;;;;4949862;28;20919;-79
2022/11/13 06:58:42;;;;;;;3.00;3.00;;;;;;;;;;4954546;28;20443;-81
2022/11/13 07:01:13;;;;;;;3.50;3.40;;;;;;;;;;4946878;28;20422;-83
2022/11/13 07:03:39;;;;;;;4.00;3.70;;;;;;;;;;4962078;28;20530;-81
2022/11/13 07:06:07;;;;;;;4.87;4.57;;;;;;;;;;4969905;28;20928;-84
2022/11/13 07:08:33;;;;;;;3.23;3.03;;;;;;;;;;4980458;28;20825;-84
2022/11/13 07:10:59;;;;;;;3.78;3.50;;;;;;;;;;4968615;28;20480;-84
2022/11/13 07:13:26;;;;;;;3.87;3.60;;;;;;;;;;4971952;28;20201;-85
2022/11/13 07:15:52;;;;;;;3.67;3.57;;;;;;;;;;4957542;28;20493;-82
2022/11/13 07:18:18;;;;;;;3.33;3.23;;;;;;;;;;4960776;28;20458;-84
2022/11/13 07:20:44;;;;;;;3.47;3.43;;;;;;;;;;4978451;28;20437;-82
2022/11/13 07:23:10;;;;;;;3.63;3.50;;;;;;;;;;4960509;28;20416;-84
2022/11/13 07:25:36;;;;;;;3.75;3.65;;;;;;;;;;4968692;28;20450;-82
2022/11/13 07:28:02;;;;;;;3.40;3.30;;;;;;;;;;4958736;28;20294;-84
2022/11/13 07:30:28;;;;;;;3.42;3.33;;;;;;;;;;4980776;28;20915;-83
2022/11/13 07:32:54;;;;;;;3.35;3.25;;;;;;;;;;4972563;28;20803;-84
2022/11/13 07:35:21;;;;;;;2.85;2.80;;;;;;;;;;4972685;28;20166;-84
2022/11/13 07:37:47;;;;;;;3.58;3.28;;;;;;;;;;4972368;28;20603;-85
2022/11/13 07:40:14;;;;;;;3.00;2.90;;;;;;;;;;4983140;28;20245;-85
2022/11/13 07:42:55;;;;;;;3.85;3.15;;;;;;;;;;4975909;28;20433;-85
2022/11/13 07:45:22;;;;;;;2.58;2.58;;;;;;;;;;4967568;28;20664;-85
2022/11/13 07:47:47;;;;;;;3.45;3.45;;;;;;;;;;4982237;28;20182;-86
2022/11/13 07:50:14;;;;;;;3.33;3.20;;;;;;;;;;4978992;28;20538;-85
2022/11/13 07:52:40;;;;;;;3.10;3.00;;;;;;;;;;4984361;28;20445;-83
2022/11/13 07:55:06;;;;;;;3.67;3.40;;;;;;;;;;4985744;28;20204;-83
2022/11/13 07:57:32;;;;;;;4.20;4.00;;;;;;;;;;4985087;28;20222;-85
2022/11/13 07:59:58;;;;;;;3.80;3.70;;;;;;;;;;4977500;28;20190;-84
2022/11/13 08:02:24;;;;;;;4.00;3.87;;;;;;;;;;4981075;28;20422;-86
2022/11/13 08:04:50;;;;;;;4.10;3.80;;;;;;;;;;4985214;28;20439;-82
2022/11/13 08:07:16;;;;;;;4.00;3.80;;;;;;;;;;4976080;28;20817;-84
2022/11/13 08:09:42;;;;;;;4.88;4.70;;;;;;;;;;4968270;28;20744;-82
2022/11/13 08:12:08;;;;;;;5.07;4.73;;;;;;;;;;4977392;28;20756;-83
2022/11/13 08:14:34;;;;;;;4.10;3.90;;;;;;;;;;4976255;28;20427;-83
2022/11/13 08:17:00;;;;;;;4.20;4.10;;;;;;;;;;4976156;28;20276;-84
2022/11/13 08:19:26;;;;;;;4.27;3.97;;;;;;;;;;4634708;28;10000505;-84
2022/11/13 08:21:52;;;;;;;4.30;4.07;;;;;;;;;;4980209;28;20832;-85
2022/11/13 08:24:18;;;;;;;3.90;3.63;;;;;;;;;;4992649;28;20474;-85
2022/11/13 08:26:44;;;;;;;3.50;3.30;;;;;;;;;;4988716;28;20464;-86
2022/11/13 08:29:10;;;;;;;4.10;4.00;;;;;;;;;;4999677;28;20520;-85
2022/11/13 08:31:36;;;;;;;5.13;4.83;;;;;;;;;;4987213;28;20414;-87
2022/11/13 08:34:02;;;;;;;4.00;3.70;;;;;;;;;;4978112;28;20529;-85
2022/11/13 08:36:28;;;;;;;4.70;4.40;;;;;;;;;;4976945;28;20502;-84
2022/11/13 08:38:54;;;;;;;3.60;3.50;;;;;;;;;;4978317;28;20849;-83
2022/11/13 08:41:23;;;;;;;3.90;3.80;;;;;;;;;;4980172;28;20445;-85
2022/11/13 08:43:49;;;;;;;2.83;2.83;;;;;;;;;;4985975;28;20448;-84
2022/11/13 08:46:15;;;;;;;4.30;4.10;;;;;;;;;;4984597;28;20465;-83
2022/11/13 08:48:42;;;;;;;4.33;4.17;;;;;;;;;;4973482;28;20468;-86
2022/11/13 08:51:09;;;;;;;2.90;2.80;;;;;;;;;;4969725;28;20421;-86
2022/11/13 08:53:35;;;;;;;3.67;3.37;;;;;;;;;;4970307;28;21040;-85
2022/11/13 08:56:01;;;;;;;3.60;3.50;;;;;;;;;;4971319;28;20484;-84
2022/11/13 08:58:27;;;;;;;3.60;3.50;;;;;;;;;;4964421;28;20844;-83
2022/11/13 09:00:53;;;;;;;3.27;3.20;;;;;;;;;;4972189;28;20424;-83
2022/11/13 09:03:19;;;;;;;2.97;2.87;;;;;;;;;;4969041;28;21031;-83
2022/11/13 09:05:45;;;;;;;3.40;3.30;;;;;;;;;;4969165;28;20567;-84
2022/11/13 09:08:11;;;;;;;2.70;2.70;;;;;;;;;;4967500;28;20982;-84
2022/11/13 09:10:37;;;;;;;3.13;2.93;;;;;;;;;;4972118;28;21105;-83
2022/11/13 09:13:04;;;;;;;2.93;2.80;;;;;;;;;;4966403;28;20988;-83
2022/11/13 09:15:31;;;;;;;3.87;3.67;;;;;;;;;;4975302;28;20564;-84
2022/11/13 09:17:58;;;;;;;3.70;3.50;;;;;;;;;;4975030;28;21181;-84
2022/11/13 09:20:24;;;;;;;4.43;4.13;;;;;;;;;;4984447;28;21046;-84
2022/11/13 09:22:55;;;;;;;3.60;3.50;;;;;;;;;;4968478;28;20440;-87
2022/11/13 09:25:21;;;;;;;3.30;3.10;;;;;;;;;;4966281;28;20875;-84
2022/11/13 09:27:58;;;;;;;3.47;3.37;;;;;;;;;;4970365;28;20557;-86
2022/11/13 09:30:24;;;;;;;3.87;3.77;;;;;;;;;;4970764;28;20420;-83
2022/11/13 09:32:57;;;;;;;4.10;4.00;;;;;;;;;;4967211;28;20434;-83
2022/11/13 09:35:33;;;;;;;4.43;4.30;;;;;;;;;;4972413;28;20429;-83
2022/11/13 09:38:13;;;;;;;4.87;4.77;;;;;;;;;;4970835;28;20812;-82
2022/11/13 09:40:41;;;;;;;3.70;3.60;;;;;;;;;;4967285;28;21133;-81
2022/11/13 09:43:23;;;;;;;4.97;4.77;;;;;;;;;;4967614;28;20728;-81
2022/11/13 09:45:51;;;;;;;3.60;3.50;;;;;;;;;;4963903;28;20452;-82
2022/11/13 09:48:35;;;;;;;3.70;3.40;;;;;;;;;;4970907;28;20805;-83
2022/11/13 09:51:04;;;;;;;3.40;3.30;;;;;;;;;;4973801;28;20453;-84
2022/11/13 09:53:34;;;;;;;3.63;3.53;;;;;;;;;;4981447;28;20449;-85
2022/11/13 09:56:02;;;;;;;2.93;2.93;;;;;;;;;;4973458;28;20503;-81
2022/11/13 09:58:48;;;;;;;3.13;3.03;;;;;;;;;;4967473;28;20972;-83
2022/11/13 10:01:20;;;;;;;3.73;3.73;;;;;;;;;;4975415;28;20413;-86
2022/11/13 10:04:05;;;;;;;3.63;3.53;;;;;;;;;;4635466;28;9999791;-85
2022/11/13 10:06:52;;;;;;;4.33;4.20;;;;;;;;;;4970549;28;20273;-83
2022/11/13 10:09:40;;;;;;;6.10;5.80;;;;;;;;;;4984210;28;20438;-84
2022/11/13 10:12:07;;;;;;;3.70;3.60;;;;;;;;;;4965881;28;21036;-83
2022/11/13 10:14:42;;;;;;;3.83;3.60;;;;;;;;;;4966955;28;20413;-82
2022/11/13 10:17:15;;;;;;;3.80;3.70;;;;;;;;;;4966477;28;20457;-83
2022/11/13 10:20:09;;;;;;;4.47;4.37;;;;;;;;;;4971582;28;20441;-83
2022/11/13 10:22:35;;;;;;;4.27;3.93;;;;;;;;;;4970766;28;20452;-83
2022/11/13 10:25:10;;;;;;;3.77;3.67;;;;;;;;;;4972712;28;20426;-83
2022/11/13 10:27:37;;;;;;;3.43;3.40;;;;;;;;;;4970586;28;20436;-84
2022/11/13 10:30:03;;;;;;;3.80;3.70;;;;;;;;;;4971630;28;20532;-84
2022/11/13 10:32:32;;;;;;;4.60;4.37;;;;;;;;;;4967478;28;20528;-84
2022/11/13 10:35:21;;;;;;;4.90;4.70;;;;;;;;;;4967578;28;20401;-84
2022/11/13 10:37:50;;;;;;;4.00;3.90;;;;;;;;;;4987180;28;20489;-82
2022/11/13 10:40:24;;;;;;;4.50;4.40;;;;;;;;;;4968745;28;20514;-83
2022/11/13 10:42:50;;;;;;;3.90;3.80;;;;;;;;;;4969542;28;20568;-81
2022/11/13 10:45:17;;;;;;;5.07;4.77;;;;;;;;;;4961507;28;20976;-85
2022/11/13 10:47:46;;;;;;;3.70;3.63;;;;;;;;;;4964363;28;20441;-84
2022/11/13 10:50:18;;;;;;;4.17;3.90;;;;;;;;;;4967840;28;20448;-83
2022/11/13 10:52:47;;;;;;;3.97;3.77;;;;;;;;;;4960469;28;20509;-82
2022/11/13 10:55:20;;;;;;;7.43;6.70;;;;;;;;;;4959046;28;21016;-81
2022/11/13 10:57:54;;;;;;;3.47;3.37;;;;;;;;;;4962289;28;20491;-81
2022/11/13 11:00:22;;;;;;;3.80;3.70;;;;;;;;;;4968628;28;20450;-83
2022/11/13 11:02:49;;;;;;;4.50;4.30;;;;;;;;;;4965207;28;20441;-83
2022/11/13 11:05:22;;;;;;;5.37;5.07;;;;;;;;;;4968675;28;20652;-86
2022/11/13 11:07:48;;;;;;;4.40;4.30;;;;;;;;;;4973724;28;20437;-83
2022/11/13 11:10:19;;;;;;;4.40;4.30;;;;;;;;;;4976601;28;20505;-79
2022/11/13 11:12:51;;;;;;;4.13;4.03;;;;;;;;;;4968259;28;20437;-81
2022/11/13 11:15:17;;;;;;;5.40;5.20;;;;;;;;;;4971144;28;20927;-82
2022/11/13 11:17:48;;;;;;;4.33;4.10;;;;;;;;;;4976809;28;20567;-82
2022/11/13 11:20:33;;;;;;;3.67;3.47;;;;;;;;;;4970323;28;20986;-83
2022/11/13 11:23:04;;;;;;;4.80;4.70;;;;;;;;;;4958831;28;20935;-83
2022/11/13 11:25:35;;;;;;;3.90;3.70;;;;;;;;;;4967042;28;20461;-80
2022/11/13 11:28:01;;;;;;;3.30;3.20;;;;;;;;;;4969682;28;20438;-82
2022/11/13 11:30:32;;;;;;;3.33;3.10;;;;;;;;;;4970392;28;20445;-83
2022/11/13 11:33:08;;;;;;;3.70;3.57;;;;;;;;;;4968905;28;20746;-82
2022/11/13 11:35:43;;;;;;;4.00;3.90;;;;;;;;;;4970662;28;20766;-85
2022/11/13 11:38:26;;;;;;;3.83;3.73;;;;;;;;;;4968093;28;20413;-73
2022/11/13 11:40:55;;;;;;;4.60;4.40;;;;;;;;;;4964049;28;20440;-74
2022/11/13 11:43:27;;;;;;;4.00;3.90;;;;;;;;;;4966235;28;20440;-74
2022/11/13 11:45:53;;;;;;;12.67;11.83;;;;;;;;;;4963312;28;21155;-74
2022/11/13 11:48:25;;;;;;;4.70;4.60;;;;;;;;;;4960384;28;20413;-79
2022/11/13 11:51:10;;;;;;;4.03;3.93;;;;;;;;;;4982607;28;20447;-79
2022/11/13 11:53:45;;;;;;;3.27;3.27;;;;;;;;;;4627430;28;10000920;-76
2022/11/13 11:56:14;;;;;;;3.50;3.40;;;;;;;;;;4952332;28;20519;-75
2022/11/13 11:58:52;;;;;;;5.90;3.60;;;;;;;;;;4958958;28;20460;-75
2022/11/13 12:01:18;;;;;;;3.17;3.17;;;;;;;;;;4965174;28;20436;-74
2022/11/13 12:03:51;;;;;;;3.30;3.20;;;;;;;;;;4969078;28;20437;-77
2022/11/13 12:06:17;;;;;;;2.93;2.83;;;;;;;;;;4952454;28;21053;-76
2022/11/13 12:09:09;;;;;;;3.57;3.37;;;;;;;;;;4959296;28;20456;-76
2022/11/13 12:11:43;;;;;;;4.10;3.80;;;;;;;;;;4932218;28;20473;-75
2022/11/13 12:14:27;;;;;;;3.00;2.90;;;;;;;;;;4952268;28;20444;-76
2022/11/13 12:17:06;;;;;;;3.70;3.70;;;;;;;;;;4959668;28;20511;-76
2022/11/13 12:19:44;;;;;;;3.13;3.03;;;;;;;;;;4960081;28;20989;-75
2022/11/13 12:22:15;;;;;;;2.77;2.77;;;;;;;;;;4945758;28;20444;-75
2022/11/13 12:24:44;;;;;;;4.00;4.00;;;;;;;;;;4960856;28;20459;-75
2022/11/13 12:27:10;;;;;;;3.30;3.20;;;;;;;;;;4961768;28;20426;-76
2022/11/13 12:29:45;;;;;;;3.97;3.87;;;;;;;;;;4963845;28;20455;-80
2022/11/13 12:32:11;;;;;;;3.10;3.10;;;;;;;;;;4959421;28;20907;-75
2022/11/13 12:34:41;;;;;;;3.97;3.87;;;;;;;;;;4968616;28;20429;-79
2022/11/13 12:37:12;;;;;;;4.53;4.40;;;;;;;;;;4969843;28;21263;-73
2022/11/13 12:39:41;;;;;;;4.90;4.77;;;;;;;;;;4967862;28;20472;-75
2022/11/13 12:42:20;;;;;;;3.20;3.20;;;;;;;;;;4964962;28;20448;-74
2022/11/13 12:44:49;;;;;;;4.13;4.00;;;;;;;;;;4982048;28;20827;-76
2022/11/13 12:47:16;;;;;;;4.63;4.50;;;;;;;;;;4962894;28;20860;-75
2022/11/13 12:49:57;;;;;;;4.37;4.07;;;;;;;;;;4963387;28;20448;-76
2022/11/13 12:52:24;;;;;;;4.60;4.40;;;;;;;;;;4947409;29;20906;-75
2022/11/13 12:54:51;;;;;;;5.23;5.00;;;;;;;;;;4981206;28;20666;-75
2022/11/13 12:57:17;;;;;;;5.77;3.93;;;;;;;;;;4966415;28;20958;-77
2022/11/13 12:59:48;;;;;;;4.47;4.37;;;;;;;;;;4967894;28;20441;-75
2022/11/13 13:02:14;;;;;;;3.70;3.60;;;;;;;;;;4988991;28;20599;-74
2022/11/13 13:04:48;;;;;;;5.00;4.70;;;;;;;;;;4975427;28;20448;-75
2022/11/13 13:07:17;;;;;;;4.97;4.57;;;;;;;;;;4950369;29;20445;-74
2022/11/13 13:09:43;;;;;;;5.23;4.93;;;;;;;;;;4973121;28;20990;-74
2022/11/13 13:12:12;;;;;;;3.73;3.53;;;;;;;;;;4976300;28;20493;-74
2022/11/13 13:14:57;;;;;;;6.73;6.33;;;;;;;;;;4979557;28;21194;-76
2022/11/13 13:17:23;;;;;;;3.90;3.70;;;;;;;;;;4970810;28;20461;-78
2022/11/13 13:20:00;;;;;;;4.90;4.80;;;;;;;;;;4965494;28;20539;-74
2022/11/13 13:22:30;;;;;;;4.50;4.40;;;;;;;;;;4972389;28;20476;-76
2022/11/13 13:25:06;;;;;;;4.47;4.17;;;;;;;;;;4965467;28;20461;-81
2022/11/13 13:27:35;;;;;;;4.77;4.57;;;;;;;;;;4969064;28;20425;-74
2022/11/13 13:30:11;;;;;;;5.00;4.80;;;;;;;;;;4962169;28;20441;-74
2022/11/13 13:32:37;;;;;;;4.37;4.27;;;;;;;;;;4969227;28;20811;-75
2022/11/13 13:35:25;;;;;;;5.60;4.40;;;;;;;;;;4970591;28;20444;-76
2022/11/13 13:37:51;;;;;;;4.27;4.13;;;;;;;;;;4965828;28;20429;-73
2022/11/13 13:40:29;;;;;;;4.67;4.37;;;;;;;;;;4965520;28;20441;-74
2022/11/13 13:43:14;;;;;;;5.17;4.77;;;;;;;;;;4966815;28;20437;-75
2022/11/13 13:45:55;;;;;;;4.87;4.73;;;;;;;;;;4965713;28;20857;-82
2022/11/13 13:48:22;;;;;;;5.33;4.93;;;;;;;;;;4967378;28;20428;-82
2022/11/13 13:50:49;;;;;;;4.37;4.20;;;;;;;;;;4966086;28;20441;-77
2022/11/13 13:53:18;;;;;;;7.83;7.13;;;;;;;;;;4968824;28;20445;-78
2022/11/13 13:55:49;;;;;;;5.57;5.20;;;;;;;;;;4966039;28;20853;-76
2022/11/13 13:58:17;;;;;;;6.20;5.90;;;;;;;;;;4964928;28;20503;-76
2022/11/13 14:00:43;;;;;;;5.97;5.67;;;;;;;;;;4966449;28;20503;-75
2022/11/13 14:03:28;;;;;;;6.00;5.70;;;;;;;;;;4983772;28;20511;-76
2022/11/13 14:05:54;;;;;;;6.63;6.13;;;;;;;;;;4957890;28;20464;-76
2022/11/13 14:08:24;;;;;;;7.93;6.03;;;;;;;;;;4966145;28;20457;-75
2022/11/13 14:10:51;;;;;;;5.57;5.17;;;;;;;;;;4976414;28;20461;-74
2022/11/13 14:13:25;;;;;;;7.13;6.47;;;;;;;;;;4976716;28;20508;-75
2022/11/13 14:16:04;;;;;;;8.30;7.70;;;;;;;;;;4962991;28;20498;-74
2022/11/13 14:18:31;;;;;;;6.60;6.10;;;;;;;;;;4966425;28;20427;-75
2022/11/13 14:20:58;;;;;;;9.23;8.40;;;;;;;;;;4967647;28;20483;-75
2022/11/13 14:23:29;;;;;;;10.13;9.53;;;;;;;;;;4970589;28;20445;-74
2022/11/13 14:25:56;;;;;;;6.63;6.30;;;;;;;;;;4967265;28;20432;-74
2022/11/13 14:28:23;;;;;;;6.87;6.43;;;;;;;;;;4964808;28;20544;-74
2022/11/13 14:30:53;;;;;;;6.73;6.33;;;;;;;;;;4965617;28;20441;-74
2022/11/13 14:33:23;;;;;;;10.30;7.83;;;;;;;;;;4974603;28;20499;-74
2022/11/13 14:35:56;;;;;;;7.57;7.17;;;;;;;;;;4967313;28;20493;-74
2022/11/13 14:38:25;;;;;;;8.17;7.67;;;;;;;;;;4970574;28;20441;-76
2022/11/13 14:40:51;;;;;;;9.20;8.50;;;;;;;;;;4965532;28;20444;-75
2022/11/13 14:43:23;;;;;;;8.50;8.00;;;;;;;;;;4953862;28;20484;-75
2022/11/13 14:46:00;;;;;;;11.03;8.50;;;;;;;;;;4964533;28;20699;-75
2022/11/13 14:48:30;;;;;;;8.43;7.83;;;;;;;;;;4967058;28;20512;-77
2022/11/13 14:50:59;;;;;;;14.93;8.80;;;;;;;;;;4947739;29;20488;-76
2022/11/13 14:53:30;;;;;;;12.23;8.43;;;;;;;;;;4973156;28;20465;-76